Time;durP1;ratioP1;P1;durP2;ratioP2;P2;SDS_P1;SDS_P2;PMS_P1;PMS_P2;Temp;Humidity;BMP_temperature;BMP_pressure;BME280_temperature;BME280_humidity;BME280_pressure;Samples;Min_cycle;Max_cycle;Signal;HPM_P1;HPM_P2
2023/04/10 00:00:56;;;;;;;16.17;12.65;;;13.50;99.90;;;;;;4973715;28;20043;-86
2023/04/10 00:03:23;;;;;;;13.52;12.13;;;13.40;99.90;;;;;;4973934;28;20074;-87
2023/04/10 00:05:53;;;;;;;15.23;12.38;;;12.90;99.90;;;;;;4973518;28;20027;-87
2023/04/10 00:08:20;;;;;;;21.15;12.32;;;13.10;99.90;;;;;;4974385;28;20030;-87
2023/04/10 00:10:55;;;;;;;13.43;12.02;;;13.20;99.90;;;;;;4974108;28;20027;-88
2023/04/10 00:13:21;;;;;;;12.88;11.52;;;12.50;99.90;;;;;;4974003;28;20486;-87
2023/04/10 00:15:59;;;;;;;13.20;10.90;;;12.70;99.90;;;;;;4973958;28;20084;-86
2023/04/10 00:18:24;;;;;;;16.65;12.65;;;13.20;99.90;;;;;;4974019;28;20468;-86
2023/04/10 00:21:06;;;;;;;15.10;11.88;;;12.60;99.90;;;;;;4973275;28;20051;-86
2023/04/10 00:23:33;;;;;;;15.05;11.70;;;12.10;99.90;;;;;;4973741;28;20033;-87
2023/04/10 00:26:11;;;;;;;13.75;12.05;;;12.10;99.90;;;;;;4973944;28;20379;-86
2023/04/10 00:28:37;;;;;;;13.15;11.32;;;12.10;99.90;;;;;;4973695;28;20022;-88
2023/04/10 00:31:08;;;;;;;13.52;12.13;;;11.90;99.90;;;;;;4974161;28;20027;-87
2023/04/10 00:33:34;;;;;;;13.88;11.40;;;13.20;99.90;;;;;;4972966;28;20027;-86
2023/04/10 00:36:14;;;;;;;14.10;12.38;;;12.20;99.90;;;;;;4973843;28;20039;-88
2023/04/10 00:38:40;;;;;;;;;;;12.80;99.90;;;;;;4974277;28;20115;-87
2023/04/10 00:41:08;;;;;;;14.43;11.90;;;13.00;99.90;;;;;;4973609;28;19973;-88
2023/04/10 00:43:34;;;;;;;15.10;12.55;;;12.90;99.90;;;;;;4973675;28;20038;-87
2023/04/10 00:46:18;;;;;;;13.82;12.32;;;12.40;99.90;;;;;;4973873;28;20027;-87
2023/04/10 00:48:44;;;;;;;12.40;10.98;;;12.30;99.90;;;;;;4972773;28;20022;-87
2023/04/10 00:51:18;;;;;;;13.35;11.52;;;11.80;99.90;;;;;;4973972;28;20027;-88
2023/04/10 00:53:44;;;;;;;15.65;12.15;;;12.50;99.90;;;;;;4974563;28;20074;-86
2023/04/10 00:56:09;;;;;;;11.32;10.23;;;11.80;99.90;;;;;;4974716;28;20046;-88
2023/04/10 00:58:44;;;;;;;13.20;11.38;;;12.50;99.90;;;;;;4973465;28;20031;-86
2023/04/10 01:01:10;;;;;;;12.98;11.65;;;12.70;99.90;;;;;;4973649;28;20082;-87
2023/04/10 01:03:37;;;;;;;11.85;10.65;;;12.70;99.90;;;;;;4972705;28;20067;-87
2023/04/10 01:06:34;;;;;;;13.48;11.18;;;13.00;99.90;;;;;;4973771;28;20093;-87
2023/04/10 01:09:14;;;;;;;15.60;11.60;;;11.90;99.90;;;;;;4970316;28;20121;-87
2023/04/10 01:11:58;;;;;;;12.70;11.40;;;12.60;99.90;;;;;;4973505;28;20023;-86
2023/04/10 01:15:10;;;;;;;13.65;10.82;;;11.80;99.90;;;;;;4973479;28;20046;-88
2023/04/10 01:18:10;;;;;;;11.90;10.60;;;11.70;99.90;;;;;;4972707;28;20035;-87
2023/04/10 01:20:42;;;;;;;12.75;11.45;;;11.00;99.90;;;;;;4974132;28;20027;-88
2023/04/10 01:23:26;;;;;;;12.85;10.85;;;12.20;99.90;;;;;;4976831;28;20038;-87
2023/04/10 01:26:06;;;;;;;12.18;10.63;;;11.70;99.90;;;;;;4977046;28;20085;-87
2023/04/10 01:28:52;;;;;;;13.38;10.65;;;11.70;99.90;;;;;;4977320;28;20030;-88
2023/04/10 01:31:30;;;;;;;11.98;10.70;;;11.60;99.90;;;;;;4976731;28;20027;-87
2023/04/10 01:34:02;;;;;;;11.60;10.20;;;11.60;99.90;;;;;;4977235;28;20023;-88
2023/04/10 01:36:33;;;;;;;14.13;10.32;;;11.60;99.90;;;;;;4976497;28;20049;-87
2023/04/10 01:39:00;;;;;;;11.00;9.85;;;11.50;99.90;;;;;;4976593;28;20422;-88
2023/04/10 01:41:26;;;;;;;11.77;10.25;;;11.60;99.90;;;;;;4977058;28;20022;-88
2023/04/10 01:43:53;;;;;;;12.70;10.60;;;11.60;99.90;;;;;;4976004;28;20027;-87
2023/04/10 01:46:29;;;;;;;11.27;10.10;;;12.20;99.90;;;;;;4976949;28;20027;-87
2023/04/10 01:48:56;;;;;;;13.07;11.10;;;12.70;99.90;;;;;;4976630;28;20414;-87
2023/04/10 01:51:26;;;;;;;10.50;9.60;;;12.60;99.90;;;;;;4976145;28;20037;-87
2023/04/10 01:53:52;;;;;;;14.50;11.03;;;12.40;99.90;;;;;;4976571;28;20487;-87
2023/04/10 01:56:36;;;;;;;11.63;9.88;;;12.60;99.90;;;;;;4976638;28;20035;-87
2023/04/10 01:59:02;;;;;;;10.30;9.30;;;12.90;99.90;;;;;;4975975;28;20031;-87
2023/04/10 02:01:43;;;;;;;11.25;10.05;;;12.60;99.90;;;;;;4976469;28;20054;-87
2023/04/10 02:04:09;;;;;;;10.00;9.10;;;12.80;99.90;;;;;;4976305;28;20079;-87
2023/04/10 02:07:05;;;;;;;10.75;9.25;;;12.50;99.90;;;;;;4975974;28;20054;-87
2023/04/10 02:10:03;;;;;;;11.57;9.40;;;11.70;99.90;;;;;;4976156;28;20110;-87
2023/04/10 02:12:35;;;;;;;10.48;9.55;;;11.70;99.90;;;;;;4975663;28;20037;-88
2023/04/10 02:15:15;;;;;;;10.25;9.18;;;11.70;99.90;;;;;;4976441;28;20030;-86
2023/04/10 02:17:50;;;;;;;10.63;9.50;;;12.50;99.90;;;;;;4977453;28;20029;-87
2023/04/10 02:20:34;;;;;;;11.13;8.98;;;11.70;99.90;;;;;;4975580;28;20062;-88
2023/04/10 02:23:16;;;;;;;10.32;9.32;;;11.60;99.90;;;;;;4976397;28;20060;-87
2023/04/10 02:25:42;;;;;;;10.20;9.20;;;12.80;99.90;;;;;;4975469;28;20122;-86
2023/04/10 02:28:23;;;;;;;10.20;8.98;;;12.60;99.90;;;;;;4976007;28;20117;-88
2023/04/10 02:31:06;;;;;;;9.98;8.57;;;11.70;99.90;;;;;;4975941;28;20026;-87
2023/04/10 02:33:47;;;;;;;10.38;9.35;;;12.00;99.90;;;;;;4974871;28;20033;-87
2023/04/10 02:36:13;;;;;;;10.25;9.05;;;12.00;99.90;;;;;;4975654;28;20034;-86
2023/04/10 02:38:42;;;;;;;10.93;9.52;;;11.60;99.90;;;;;;4975643;28;20027;-87
2023/04/10 02:41:07;;;;;;;9.95;8.98;;;12.40;99.90;;;;;;4975236;28;20045;-87
2023/04/10 02:43:33;;;;;;;10.13;9.15;;;11.60;99.90;;;;;;4975765;28;20023;-86
2023/04/10 02:46:14;;;;;;;11.82;9.18;;;12.50;99.90;;;;;;4975962;28;20054;-86
2023/04/10 02:48:39;;;;;;;;;;;12.20;99.90;;;;;;4975512;28;20033;-86
2023/04/10 02:51:11;;;;;;;9.88;7.88;;;12.60;99.90;;;;;;4976200;28;19906;-87
2023/04/10 02:53:36;;;;;;;9.40;8.40;;;12.70;99.90;;;;;;4975627;28;20375;-86
2023/04/10 02:56:20;;;;;;;8.98;8.18;;;12.40;99.90;;;;;;4975373;28;20039;-87
2023/04/10 02:58:46;;;;;;;9.52;8.55;;;11.60;99.90;;;;;;4975177;28;20027;-87
2023/04/10 03:01:30;;;;;;;9.57;8.65;;;11.70;99.90;;;;;;4974874;28;20034;-87
2023/04/10 03:04:52;;;;;;;9.25;8.35;;;12.60;99.90;;;;;;4975345;28;20177;-90
2023/04/10 03:07:17;;;;;;;9.93;8.93;;;11.70;99.90;;;;;;4975602;28;20074;-87
2023/04/10 03:09:43;;;;;;;9.63;8.75;;;13.40;99.90;;;;;;4974420;28;20423;-86
2023/04/10 03:12:17;;;;;;;9.18;8.25;;;12.90;99.90;;;;;;4975264;28;20050;-87
2023/04/10 03:14:42;;;;;;;9.90;8.90;;;12.80;99.90;;;;;;4975209;28;20109;-88
2023/04/10 03:17:22;;;;;;;9.48;8.48;;;11.80;99.90;;;;;;4974736;28;20448;-87
2023/04/10 03:19:48;;;;;;;8.63;7.82;;;11.50;99.90;;;;;;4974885;28;20468;-87
2023/04/10 03:22:26;;;;;;;9.43;8.63;;;11.80;99.90;;;;;;4974664;28;20046;-87
2023/04/10 03:24:51;;;;;;;9.88;8.25;;;12.60;99.90;;;;;;4974884;28;20038;-87
2023/04/10 03:27:33;;;;;;;8.60;7.80;;;13.00;99.90;;;;;;4975045;28;20041;-88
2023/04/10 03:30:11;;;;;;;8.40;7.60;;;13.00;99.90;;;;;;4974514;28;20031;-87
2023/04/10 03:32:37;;;;;;;8.90;8.05;;;12.00;99.90;;;;;;4975382;28;20475;-87
2023/04/10 03:35:12;;;;;;;8.50;7.70;;;12.70;99.90;;;;;;4974978;28;20367;-87
2023/04/10 03:37:38;;;;;;;9.23;8.25;;;11.60;99.90;;;;;;4974287;28;20098;-88
2023/04/10 03:40:07;;;;;;;8.40;7.60;;;12.50;99.90;;;;;;4975996;28;20117;-87
2023/04/10 03:42:33;;;;;;;8.82;8.07;;;12.10;99.90;;;;;;4975380;28;20070;-87
2023/04/10 03:45:01;;;;;;;8.35;7.55;;;12.10;99.90;;;;;;4973745;28;20031;-87
2023/04/10 03:47:27;;;;;;;10.07;7.63;;;12.10;99.90;;;;;;4974454;28;20034;-87
2023/04/10 03:49:52;;;;;;;8.50;7.72;;;12.00;99.90;;;;;;4974646;28;20035;-86
2023/04/10 03:52:18;;;;;;;8.63;7.93;;;12.00;99.90;;;;;;4974174;28;20541;-87
2023/04/10 03:54:44;;;;;;;10.20;8.13;;;12.00;99.90;;;;;;4974312;28;20045;-87
2023/04/10 03:57:09;;;;;;;9.43;8.38;;;11.80;99.90;;;;;;4974428;28;20023;-87
2023/04/10 03:59:35;;;;;;;9.93;8.93;;;11.80;99.90;;;;;;4974314;28;20033;-87
2023/04/10 04:02:13;;;;;;;9.55;8.70;;;11.80;99.90;;;;;;4974082;28;20026;-87
2023/04/10 04:04:39;;;;;;;11.07;8.45;;;11.70;99.90;;;;;;4972965;28;20050;-87
2023/04/10 04:07:14;;;;;;;9.65;8.85;;;13.00;99.90;;;;;;4974684;28;20126;-87
2023/04/10 04:09:42;;;;;;;9.23;8.32;;;12.90;99.90;;;;;;4974164;28;20102;-87
2023/04/10 04:12:12;;;;;;;8.63;7.85;;;11.60;99.90;;;;;;4973876;28;20098;-86
2023/04/10 04:14:38;;;;;;;8.65;7.75;;;12.60;99.90;;;;;;4974546;28;20191;-87
2023/04/10 04:17:10;;;;;;;8.90;8.10;;;12.30;99.90;;;;;;4974569;28;20129;-86
2023/04/10 04:19:35;;;;;;;9.27;8.18;;;12.20;99.90;;;;;;4973534;28;20386;-87
2023/04/10 04:22:11;;;;;;;9.32;8.45;;;11.70;99.90;;;;;;4973924;28;20027;-87
2023/04/10 04:24:36;;;;;;;9.02;8.13;;;10.80;99.90;;;;;;4973916;28;20034;-87
2023/04/10 04:27:02;;;;;;;7.93;7.13;;;12.60;99.90;;;;;;4973009;28;20029;-87
2023/04/10 04:29:33;;;;;;;9.00;7.80;;;11.60;99.90;;;;;;4974062;28;20030;-87
2023/04/10 04:31:59;;;;;;;8.23;7.43;;;12.50;99.90;;;;;;4973923;28;20541;-87
2023/04/10 04:34:36;;;;;;;8.57;7.68;;;11.40;99.90;;;;;;4972956;28;20030;-87
2023/04/10 04:37:11;;;;;;;8.75;7.95;;;12.30;99.90;;;;;;4974094;28;20059;-87
2023/04/10 04:39:37;;;;;;;9.02;7.75;;;12.20;99.90;;;;;;4979691;23;20055;-86
2023/04/10 04:42:03;;;;;;;9.50;8.60;;;11.30;99.90;;;;;;4974079;28;20038;-86
2023/04/10 04:44:28;;;;;;;8.73;7.93;;;11.30;99.90;;;;;;4974099;28;20027;-86
2023/04/10 04:47:03;;;;;;;9.65;8.73;;;11.30;99.90;;;;;;4973037;28;20023;-86
2023/04/10 04:49:29;;;;;;;8.77;8.00;;;11.30;99.90;;;;;;4973890;28;20030;-87
2023/04/10 04:51:54;;;;;;;8.25;7.55;;;11.50;99.90;;;;;;4973456;28;20467;-88
2023/04/10 04:54:20;;;;;;;8.27;7.57;;;11.30;99.90;;;;;;4967452;28;20406;-86
2023/04/10 04:56:45;;;;;;;8.23;7.47;;;11.90;99.90;;;;;;4976292;28;20039;-86
2023/04/10 04:59:26;;;;;;;9.68;8.60;;;11.10;99.90;;;;;;4977831;28;20018;-87
2023/04/10 05:01:51;;;;;;;9.45;8.10;;;12.00;99.90;;;;;;4977254;28;20106;-86
2023/04/10 05:04:19;;;;;;;9.45;8.55;;;11.10;99.90;;;;;;4980671;28;20485;-87
2023/04/10 05:06:45;;;;;;;8.45;7.65;;;11.50;99.90;;;;;;4977392;28;20026;-87
2023/04/10 05:09:10;;;;;;;9.50;8.63;;;11.10;99.90;;;;;;4976918;28;20019;-86
2023/04/10 05:11:36;;;;;;;9.40;8.48;;;11.00;99.90;;;;;;4977533;28;20031;-87
2023/04/10 05:14:01;;;;;;;8.75;7.75;;;11.00;99.90;;;;;;4977507;28;20357;-87
2023/04/10 05:16:27;;;;;;;10.07;8.30;;;11.70;99.90;;;;;;4977067;28;20497;-87
2023/04/10 05:18:52;;;;;;;9.05;8.25;;;12.00;99.90;;;;;;4976981;28;20033;-86
2023/04/10 05:21:18;;;;;;;8.95;8.15;;;11.00;99.90;;;;;;4977199;28;20027;-87
2023/04/10 05:23:43;;;;;;;9.48;8.10;;;10.90;99.90;;;;;;4976188;28;20107;-87
2023/04/10 05:26:09;;;;;;;12.98;8.48;;;10.90;99.90;;;;;;4989673;28;20026;-86
2023/04/10 05:28:34;;;;;;;8.65;7.93;;;10.90;99.90;;;;;;4991165;28;20127;-87
2023/04/10 05:31:00;;;;;;;8.00;7.30;;;11.00;99.90;;;;;;4996625;28;20060;-87
2023/04/10 05:33:26;;;;;;;9.85;7.50;;;10.90;99.90;;;;;;4996560;28;20029;-87
2023/04/10 05:35:52;;;;;;;8.32;7.53;;;10.90;99.90;;;;;;4995570;28;20486;-86
2023/04/10 05:38:17;;;;;;;11.80;7.15;;;10.90;99.90;;;;;;4996270;28;20070;-87
2023/04/10 05:40:46;;;;;;;7.88;7.18;;;10.90;99.90;;;;;;4996152;28;20515;-88
2023/04/10 05:43:12;;;;;;;8.13;7.43;;;10.90;99.90;;;;;;4996084;28;20030;-86
2023/04/10 05:45:39;;;;;;;8.95;8.10;;;10.90;99.90;;;;;;4996426;28;20023;-87
2023/04/10 05:48:05;;;;;;;8.70;7.82;;;10.90;99.90;;;;;;4996159;28;20022;-87
2023/04/10 05:50:30;;;;;;;8.75;7.97;;;10.80;99.90;;;;;;4995463;28;20023;-86
2023/04/10 05:53:03;;;;;;;12.38;7.95;;;11.20;99.90;;;;;;4995969;28;20042;-90
2023/04/10 05:55:32;;;;;;;9.35;8.35;;;10.90;99.90;;;;;;4996128;28;20031;-86
2023/04/10 05:58:03;;;;;;;9.25;8.40;;;10.90;99.90;;;;;;4992203;28;20026;-87
2023/04/10 06:00:29;;;;;;;8.38;7.57;;;10.70;99.90;;;;;;4978112;28;20027;-86
2023/04/10 06:02:54;;;;;;;11.60;8.52;;;10.80;99.90;;;;;;4975394;28;20077;-87
2023/04/10 06:05:20;;;;;;;8.88;8.15;;;10.90;99.90;;;;;;4974358;28;20035;-87
2023/04/10 06:07:46;;;;;;;8.75;7.85;;;10.90;99.90;;;;;;4975217;28;20015;-86
2023/04/10 06:10:11;;;;;;;8.05;7.35;;;10.90;99.90;;;;;;4981051;28;20037;-86
2023/04/10 06:12:37;;;;;;;9.13;8.23;;;10.90;99.90;;;;;;4984737;28;20023;-86
2023/04/10 06:15:03;;;;;;;9.48;7.85;;;10.80;99.90;;;;;;4985104;28;20157;-86
2023/04/10 06:17:29;;;;;;;9.60;8.70;;;10.80;99.90;;;;;;4975230;28;20023;-87
2023/04/10 06:19:55;;;;;;;9.98;8.73;;;10.80;99.90;;;;;;4975067;28;20026;-86
2023/04/10 06:22:21;;;;;;;8.00;7.30;;;10.80;99.90;;;;;;4975870;28;20021;-86
2023/04/10 06:24:46;;;;;;;8.82;7.97;;;10.80;99.90;;;;;;4975080;28;20039;-86
2023/04/10 06:27:12;;;;;;;9.18;7.95;;;10.70;99.90;;;;;;4976764;28;20022;-86
2023/04/10 06:29:38;;;;;;;9.63;8.73;;;10.80;99.90;;;;;;4975485;28;20050;-86
2023/04/10 06:32:03;;;;;;;8.43;7.63;;;10.70;99.90;;;;;;4972695;28;20089;-86
2023/04/10 06:34:29;;;;;;;10.05;8.27;;;10.70;99.90;;;;;;4975738;28;20039;-86
2023/04/10 06:36:55;;;;;;;8.57;7.82;;;11.30;99.90;;;;;;4975589;28;20522;-86
2023/04/10 06:39:20;;;;;;;9.02;8.18;;;12.00;99.90;;;;;;4981963;28;20061;-86
2023/04/10 06:41:46;;;;;;;9.68;8.68;;;10.80;99.90;;;;;;4984057;28;20092;-87
2023/04/10 06:44:11;;;;;;;8.55;7.75;;;10.70;99.90;;;;;;4986299;28;20125;-86
2023/04/10 06:46:37;;;;;;;9.20;8.30;;;10.70;99.90;;;;;;4984604;28;20054;-87
2023/04/10 06:49:11;;;;;;;12.93;8.65;;;11.90;99.90;;;;;;4988408;28;20038;-87
2023/04/10 06:51:36;;;;;;;8.52;7.72;;;11.70;99.90;;;;;;4984520;28;20030;-87
2023/04/10 06:54:17;;;;;;;8.68;7.85;;;11.70;99.90;;;;;;4985551;28;20015;-87
2023/04/10 06:56:43;;;;;;;10.20;8.85;;;10.80;99.90;;;;;;4982458;28;20049;-87
2023/04/10 06:59:08;;;;;;;8.70;7.90;;;10.70;99.90;;;;;;4977165;28;20023;-86
2023/04/10 07:01:34;;;;;;;7.90;7.22;;;10.70;99.90;;;;;;4978167;28;20031;-86
2023/04/10 07:04:00;;;;;;;9.20;8.27;;;10.70;99.90;;;;;;4976899;28;20026;-87
2023/04/10 07:06:25;;;;;;;8.93;8.02;;;10.80;99.90;;;;;;4974921;28;20026;-86
2023/04/10 07:08:51;;;;;;;9.50;8.60;;;11.00;99.90;;;;;;4974095;28;20026;-86
2023/04/10 07:11:16;;;;;;;9.20;7.97;;;10.80;99.90;;;;;;4971775;28;20410;-86
2023/04/10 07:13:42;;;;;;;9.20;8.30;;;10.80;99.90;;;;;;4974030;28;20061;-86
2023/04/10 07:16:11;;;;;;;8.95;8.15;;;10.80;99.90;;;;;;4965375;28;20030;-87
2023/04/10 07:18:39;;;;;;;12.40;8.50;;;10.90;99.90;;;;;;4958252;28;20027;-87
2023/04/10 07:21:12;;;;;;;8.82;8.02;;;10.90;99.90;;;;;;4975971;28;20027;-87
2023/04/10 07:23:37;;;;;;;9.95;9.05;;;11.20;99.90;;;;;;4976904;28;20065;-86
2023/04/10 07:26:03;;;;;;;10.07;8.68;;;11.40;99.90;;;;;;4975242;28;20436;-87
2023/04/10 07:28:28;;;;;;;12.02;8.65;;;11.00;99.90;;;;;;4973365;28;20089;-87
2023/04/10 07:30:54;;;;;;;10.23;8.55;;;11.00;99.90;;;;;;4974445;28;20026;-86
2023/04/10 07:33:20;;;;;;;9.50;8.45;;;11.10;99.90;;;;;;4974540;28;20019;-86
2023/04/10 07:35:45;;;;;;;9.32;8.52;;;11.10;99.90;;;;;;4973234;28;20467;-87
2023/04/10 07:38:12;;;;;;;12.05;9.05;;;11.60;99.90;;;;;;4974012;28;20035;-86
2023/04/10 07:40:37;;;;;;;9.48;8.60;;;11.20;99.90;;;;;;4974195;28;20049;-86
2023/04/10 07:43:03;;;;;;;12.07;9.15;;;12.00;99.90;;;;;;4974477;28;20019;-87
2023/04/10 07:45:29;;;;;;;10.40;9.38;;;11.30;99.90;;;;;;4977017;28;20455;-86
2023/04/10 07:47:54;;;;;;;10.32;8.60;;;11.30;99.90;;;;;;4979634;28;20049;-87
2023/04/10 07:50:20;;;;;;;9.35;8.55;;;11.30;99.90;;;;;;4975511;28;20030;-87
2023/04/10 07:52:47;;;;;;;9.30;8.20;;;11.30;99.90;;;;;;4973912;28;20022;-87
2023/04/10 07:55:12;;;;;;;9.20;8.40;;;11.30;99.90;;;;;;4974390;28;20070;-86
2023/04/10 07:57:38;;;;;;;10.65;9.48;;;11.30;99.90;;;;;;4973319;28;20046;-87
2023/04/10 08:00:04;;;;;;;9.95;8.95;;;11.30;99.90;;;;;;4974379;28;20034;-86
2023/04/10 08:02:30;;;;;;;10.13;9.07;;;11.30;99.90;;;;;;4974072;28;20061;-86
2023/04/10 08:04:55;;;;;;;9.25;8.13;;;11.40;99.90;;;;;;4973674;28;20027;-87
2023/04/10 08:07:21;;;;;;;10.15;8.95;;;11.40;99.90;;;;;;4972921;28;20062;-87
2023/04/10 08:09:48;;;;;;;9.50;8.60;;;11.40;99.90;;;;;;4971771;28;20129;-88
2023/04/10 08:12:13;;;;;;;9.63;8.60;;;11.40;99.90;;;;;;4979617;28;20102;-85
2023/04/10 08:14:39;;;;;;;9.82;8.82;;;11.50;99.90;;;;;;4973556;28;20030;-86
2023/04/10 08:17:05;;;;;;;10.18;9.18;;;11.50;99.90;;;;;;4971433;28;20483;-85
2023/04/10 08:19:30;;;;;;;9.90;8.52;;;11.50;99.90;;;;;;4978471;28;20054;-88
2023/04/10 08:21:56;;;;;;;10.63;9.55;;;12.40;99.90;;;;;;4982983;28;20022;-85
2023/04/10 08:24:22;;;;;;;11.43;8.90;;;11.50;99.90;;;;;;4977964;28;20464;-87
2023/04/10 08:26:47;;;;;;;10.35;8.00;;;12.10;99.90;;;;;;4979393;28;20045;-88
2023/04/10 08:29:13;;;;;;;9.50;8.60;;;11.60;99.90;;;;;;4980050;28;20120;-88
2023/04/10 08:31:39;;;;;;;13.02;9.13;;;11.60;99.90;;;;;;4987902;28;20165;-89
2023/04/10 08:34:15;;;;;;;9.48;8.52;;;11.60;99.90;;;;;;4966257;28;20086;-86
2023/04/10 08:36:41;;;;;;;9.95;9.00;;;12.40;99.90;;;;;;4970870;28;20035;-86
2023/04/10 08:39:12;;;;;;;12.68;9.40;;;11.60;99.90;;;;;;4972093;28;20098;-86
2023/04/10 08:41:40;;;;;;;9.40;8.55;;;12.20;99.90;;;;;;4973007;28;20038;-85
2023/04/10 08:44:05;;;;;;;10.43;8.18;;;11.70;99.90;;;;;;4969823;28;20114;-86
2023/04/10 08:46:35;;;;;;;10.35;8.73;;;11.80;99.90;;;;;;4971471;28;20527;-86
2023/04/10 08:49:02;;;;;;;9.68;8.77;;;11.80;99.90;;;;;;4972750;28;20033;-86
2023/04/10 08:51:36;;;;;;;9.63;8.73;;;12.10;99.90;;;;;;4972558;28;20041;-85
2023/04/10 08:54:09;;;;;;;9.70;8.77;;;11.80;99.90;;;;;;4970442;28;20054;-85
2023/04/10 08:56:38;;;;;;;10.25;9.25;;;11.80;99.90;;;;;;4973358;28;20039;-85
2023/04/10 08:59:04;;;;;;;10.55;9.52;;;11.80;99.90;;;;;;4973384;28;20101;-87
2023/04/10 09:01:30;;;;;;;10.40;9.40;;;11.80;99.90;;;;;;4972745;28;20120;-87
2023/04/10 09:03:56;;;;;;;12.85;8.85;;;11.90;99.90;;;;;;4973650;28;20475;-87
2023/04/10 09:06:26;;;;;;;9.27;8.38;;;11.90;99.90;;;;;;4988284;23;20070;-85
2023/04/10 09:08:51;;;;;;;9.65;8.65;;;11.60;99.90;;;;;;4985295;28;20060;-86
2023/04/10 09:11:17;;;;;;;10.38;9.38;;;12.50;99.90;;;;;;4993066;28;20076;-87
2023/04/10 09:13:43;;;;;;;9.25;8.45;;;12.00;99.90;;;;;;4990331;28;20447;-85
2023/04/10 09:16:10;;;;;;;9.70;8.80;;;12.10;99.90;;;;;;4992538;28;20117;-85
2023/04/10 09:18:50;;;;;;;9.60;8.70;;;12.10;99.90;;;;;;4991189;28;20022;-86
2023/04/10 09:21:18;;;;;;;9.57;8.70;;;12.10;99.90;;;;;;4991775;28;20035;-85
2023/04/10 09:23:45;;;;;;;10.95;9.95;;;12.20;99.90;;;;;;4991470;28;20027;-85
2023/04/10 09:26:31;;;;;;;10.18;9.20;;;12.20;99.90;;;;;;4992912;28;20026;-88
2023/04/10 09:28:56;;;;;;;9.35;8.55;;;12.20;99.90;;;;;;4970347;28;20062;-86
2023/04/10 09:31:33;;;;;;;10.98;9.98;;;12.30;99.90;;;;;;4978955;28;20053;-88
2023/04/10 09:34:17;;;;;;;9.93;9.10;;;12.30;99.90;;;;;;4972492;28;20059;-87
2023/04/10 09:36:52;;;;;;;10.00;9.00;;;12.30;99.90;;;;;;4970984;28;20034;-87
2023/04/10 09:39:17;;;;;;;10.20;9.20;;;13.40;99.90;;;;;;4971947;28;20471;-87
2023/04/10 09:41:54;;;;;;;9.90;9.00;;;12.40;99.90;;;;;;4972201;28;20106;-86
2023/04/10 09:44:34;;;;;;;9.90;8.90;;;12.90;99.90;;;;;;4977140;28;20057;-86
2023/04/10 09:47:12;;;;;;;12.98;9.13;;;12.60;99.90;;;;;;4975712;28;20035;-86
2023/04/10 09:49:49;;;;;;;9.98;9.07;;;12.60;99.90;;;;;;4974737;28;20023;-88
2023/04/10 09:52:27;;;;;;;10.45;9.48;;;12.60;99.90;;;;;;4974292;28;20520;-86
2023/04/10 09:54:55;;;;;;;10.77;9.60;;;12.70;99.90;;;;;;4972760;28;20042;-87
2023/04/10 09:57:22;;;;;;;10.93;9.80;;;12.70;99.90;;;;;;4972926;28;20034;-86
2023/04/10 09:59:56;;;;;;;10.55;9.45;;;12.70;99.90;;;;;;4972832;28;20027;-88
2023/04/10 10:02:23;;;;;;;10.75;9.75;;;12.70;99.90;;;;;;4973359;28;20053;-86
2023/04/10 10:04:49;;;;;;;11.25;10.15;;;12.60;99.90;;;;;;4972127;28;20027;-86
2023/04/10 10:07:16;;;;;;;15.60;10.57;;;12.70;99.90;;;;;;4973150;28;20061;-87
2023/04/10 10:09:43;;;;;;;11.07;9.80;;;12.70;99.90;;;;;;4976377;28;20026;-87
2023/04/10 10:12:11;;;;;;;11.95;10.85;;;12.80;99.90;;;;;;4976018;28;20027;-86
2023/04/10 10:15:02;;;;;;;12.57;11.27;;;12.80;99.90;;;;;;4976170;28;20090;-86
2023/04/10 10:17:30;;;;;;;;;;;13.50;99.90;;;;;;4962326;28;20034;-87
2023/04/10 10:20:06;;;;;;;14.68;10.98;;;13.60;99.90;;;;;;4976547;28;19906;-87
2023/04/10 10:22:33;;;;;;;13.07;11.68;;;12.90;99.90;;;;;;4976200;28;20026;-87
2023/04/10 10:25:01;;;;;;;22.05;11.65;;;12.90;99.90;;;;;;4975620;28;20034;-87
2023/04/10 10:27:29;;;;;;;14.27;11.25;;;13.00;99.90;;;;;;4976077;28;20106;-86
2023/04/10 10:29:58;;;;;;;15.18;11.75;;;13.00;99.90;;;;;;4976067;28;20038;-86
2023/04/10 10:32:24;;;;;;;22.75;12.27;;;13.10;99.90;;;;;;4975714;28;20027;-86
2023/04/10 10:34:51;;;;;;;13.05;11.52;;;13.10;99.90;;;;;;4976711;28;20030;-87
2023/04/10 10:37:18;;;;;;;14.18;11.18;;;13.20;99.90;;;;;;4977379;28;20390;-87
2023/04/10 10:39:58;;;;;;;14.23;12.45;;;13.20;99.90;;;;;;4975143;28;20039;-87
2023/04/10 10:42:38;;;;;;;13.75;11.73;;;13.30;99.90;;;;;;4976147;28;20106;-86
2023/04/10 10:45:11;;;;;;;;;;;13.40;99.90;;;;;;4975749;28;20030;-87
2023/04/10 10:47:44;;;;;;;15.10;11.07;;;13.40;99.90;;;;;;4975641;28;19906;-86
2023/04/10 10:50:10;;;;;;;12.70;11.00;;;13.50;99.90;;;;;;4975605;28;20514;-87
2023/04/10 10:52:52;;;;;;;12.60;11.27;;;13.50;99.90;;;;;;4974279;28;20027;-87
2023/04/10 10:55:21;;;;;;;12.13;10.90;;;13.60;99.90;;;;;;4975235;28;20033;-87
2023/04/10 10:58:01;;;;;;;11.50;10.25;;;13.60;99.90;;;;;;4975554;28;20023;-87
2023/04/10 11:01:03;;;;;;;13.13;11.30;;;13.60;99.90;;;;;;4975038;28;20026;-86
2023/04/10 11:03:28;;;;;;;12.02;10.00;;;14.50;99.90;;;;;;4975363;28;20022;-87
2023/04/10 11:05:54;;;;;;;11.55;10.40;;;13.70;99.90;;;;;;4975122;28;20117;-86
2023/04/10 11:08:32;;;;;;;11.15;10.05;;;14.40;99.90;;;;;;4974758;28;20029;-87
2023/04/10 11:11:11;;;;;;;10.55;9.55;;;14.40;99.90;;;;;;4975509;28;20027;-87
2023/04/10 11:13:42;;;;;;;10.18;9.15;;;14.00;99.90;;;;;;4974687;28;20026;-86
2023/04/10 11:16:11;;;;;;;;;;;14.90;99.90;;;;;;4975893;28;20035;-86
2023/04/10 11:18:46;;;;;;;9.40;8.60;;;14.10;99.90;;;;;;4975046;28;19913;-86
2023/04/10 11:21:22;;;;;;;9.75;8.70;;;14.10;99.90;;;;;;4974654;28;20037;-86
2023/04/10 11:23:56;;;;;;;9.70;8.70;;;14.40;99.90;;;;;;4974739;28;20019;-87
2023/04/10 11:26:34;;;;;;;9.10;8.30;;;14.30;99.90;;;;;;4975475;28;20101;-87
2023/04/10 11:29:28;;;;;;;9.68;8.15;;;14.30;99.90;;;;;;4974591;28;20027;-87
2023/04/10 11:32:02;;;;;;;9.48;8.68;;;14.40;99.90;;;;;;4974172;28;20534;-87
2023/04/10 11:34:29;;;;;;;8.65;7.95;;;14.40;99.90;;;;;;4974505;28;20041;-87
2023/04/10 11:36:55;;;;;;;9.02;7.82;;;14.40;99.90;;;;;;4975034;28;20399;-86
2023/04/10 11:39:21;;;;;;;8.50;7.60;;;14.50;99.90;;;;;;4974767;28;20038;-86
2023/04/10 11:41:48;;;;;;;11.90;7.22;;;14.70;99.90;;;;;;4973904;28;20057;-87
2023/04/10 11:44:16;;;;;;;8.25;7.45;;;14.50;99.90;;;;;;4974861;28;20390;-87
2023/04/10 11:46:47;;;;;;;8.35;7.43;;;14.60;99.90;;;;;;4974313;28;20117;-88
2023/04/10 11:49:21;;;;;;;8.38;7.63;;;14.70;99.90;;;;;;4974331;28;20106;-87
2023/04/10 11:51:48;;;;;;;6.65;6.05;;;14.60;99.90;;;;;;4974652;28;20030;-86
2023/04/10 11:54:15;;;;;;;9.02;6.43;;;15.60;99.90;;;;;;4974801;28;20047;-87
2023/04/10 11:57:01;;;;;;;7.03;6.43;;;14.60;99.90;;;;;;4973635;28;20034;-86
2023/04/10 11:59:27;;;;;;;7.18;6.47;;;14.70;99.90;;;;;;4976802;28;20027;-88
2023/04/10 12:02:09;;;;;;;6.47;5.88;;;14.70;99.90;;;;;;4974526;28;20101;-88
2023/04/10 12:04:35;;;;;;;8.27;5.78;;;14.70;99.90;;;;;;4973147;28;20474;-87
2023/04/10 12:07:01;;;;;;;6.78;6.20;;;15.80;99.90;;;;;;4974005;28;20546;-86
2023/04/10 12:09:27;;;;;;;8.15;6.20;;;14.80;99.90;;;;;;4973740;28;20023;-86
2023/04/10 12:12:02;;;;;;;6.80;6.07;;;14.80;99.90;;;;;;4973575;28;20027;-87
2023/04/10 12:14:32;;;;;;;8.93;5.85;;;14.80;99.90;;;;;;4974147;28;20022;-86
2023/04/10 12:16:59;;;;;;;;;;;14.80;99.90;;;;;;4973768;28;20058;-87
2023/04/10 12:19:26;;;;;;;7.95;6.20;;;14.90;99.90;;;;;;4973999;28;19952;-87
2023/04/10 12:21:52;;;;;;;5.80;5.30;;;14.80;99.90;;;;;;4973889;28;20054;-87
2023/04/10 12:24:46;;;;;;;5.50;5.00;;;15.40;99.90;;;;;;4973070;28;20042;-87
2023/04/10 12:27:20;;;;;;;8.57;5.40;;;14.80;99.90;;;;;;4974095;28;20034;-87
2023/04/10 12:29:47;;;;;;;6.20;5.60;;;14.80;99.90;;;;;;4973777;28;20561;-87
2023/04/10 12:32:13;;;;;;;9.63;7.72;;;14.80;99.90;;;;;;4973217;28;20031;-87
2023/04/10 12:34:39;;;;;;;7.05;5.60;;;14.80;99.90;;;;;;4973353;28;20353;-86
2023/04/10 12:37:05;;;;;;;6.47;5.97;;;14.90;99.90;;;;;;4974330;28;20039;-87
2023/04/10 12:39:31;;;;;;;6.20;5.22;;;14.80;99.90;;;;;;4973226;28;20023;-86
2023/04/10 12:42:16;;;;;;;18.00;5.82;;;14.80;99.90;;;;;;4974003;28;20072;-87
2023/04/10 12:44:56;;;;;;;9.20;4.88;;;14.80;99.90;;;;;;4973124;28;20027;-86
2023/04/10 12:47:22;;;;;;;8.75;4.90;;;14.80;99.90;;;;;;4973766;28;20034;-87
2023/04/10 12:50:06;;;;;;;5.95;5.45;;;14.80;99.90;;;;;;4973634;28;20026;-87
2023/04/10 12:52:32;;;;;;;8.90;5.85;;;14.80;99.90;;;;;;4973179;28;20027;-87
2023/04/10 12:55:30;;;;;;;6.10;5.53;;;14.80;99.90;;;;;;4973840;28;20046;-87
2023/04/10 12:57:55;;;;;;;5.95;5.40;;;15.20;99.90;;;;;;4958483;28;20387;-86
2023/04/10 13:00:21;;;;;;;7.03;4.75;;;14.80;99.90;;;;;;4972694;28;20101;-87